createdAt,value
2023-04-15T00:00:18.011Z,99.90
2023-04-15T00:02:50.484Z,99.90
2023-04-15T00:05:21.247Z,99.90
2023-04-15T00:07:51.636Z,99.90
2023-04-15T00:10:28.617Z,99.90
2023-04-15T00:13:02.054Z,99.90
2023-04-15T00:15:38.050Z,99.90
2023-04-15T00:18:09.336Z,99.90
2023-04-15T00:20:40.361Z,99.90
2023-04-15T00:23:10.879Z,99.90
2023-04-15T00:25:44.906Z,99.90
2023-04-15T00:28:15.292Z,99.90
2023-04-15T00:30:46.400Z,99.90
2023-04-15T00:33:17.930Z,99.90
2023-04-15T00:35:48.394Z,99.90
2023-04-15T00:38:18.872Z,99.90
2023-04-15T00:40:51.945Z,99.90
2023-04-15T00:43:22.330Z,99.90
2023-04-15T00:45:55.110Z,99.90
2023-04-15T00:48:25.607Z,99.90
2023-04-15T00:50:56.161Z,99.90
2023-04-15T00:53:26.732Z,99.90
2023-04-15T00:55:59.749Z,99.90
2023-04-15T00:58:31.083Z,99.90
2023-04-15T01:01:03.109Z,99.90
2023-04-15T01:03:34.413Z,99.90
2023-04-15T01:06:05.157Z,99.90
2023-04-15T01:08:35.869Z,99.90
2023-04-15T01:11:09.771Z,99.90
2023-04-15T01:13:40.403Z,99.90
2023-04-15T01:16:11.610Z,99.90
2023-04-15T01:18:42.720Z,99.90
2023-04-15T01:21:13.769Z,99.90
2023-04-15T01:23:44.279Z,99.90
2023-04-15T01:26:17.705Z,99.90
2023-04-15T01:28:49.543Z,99.90
2023-04-15T01:31:19.986Z,99.90
2023-04-15T01:33:50.432Z,99.90
2023-04-15T01:36:20.880Z,99.90
2023-04-15T01:38:51.670Z,99.90
2023-04-15T01:41:29.123Z,99.90
2023-04-15T01:43:59.573Z,99.90
2023-04-15T01:46:30.120Z,99.90
2023-04-15T01:49:00.705Z,99.90
2023-04-15T01:51:31.257Z,99.90
2023-04-15T01:54:01.691Z,99.90
2023-04-15T01:56:36.249Z,99.90
2023-04-15T01:59:07.114Z,99.90
2023-04-15T02:01:37.644Z,99.90
2023-04-15T02:04:08.561Z,99.90
2023-04-15T02:06:39.001Z,99.90
2023-04-15T02:09:09.457Z,99.90
2023-04-15T02:11:42.494Z,99.90
2023-04-15T02:14:12.982Z,99.90
2023-04-15T02:16:43.599Z,99.90
2023-04-15T02:19:14.230Z,99.90
2023-04-15T02:21:44.773Z,99.90
2023-04-15T02:24:15.185Z,99.90
2023-04-15T02:26:48.290Z,99.90
2023-04-15T02:29:19.198Z,99.90
2023-04-15T02:31:49.696Z,99.90
2023-04-15T02:34:20.085Z,99.90
2023-04-15T02:36:55.263Z,99.90
2023-04-15T02:39:25.761Z,99.90
2023-04-15T02:42:00.348Z,99.90
2023-04-15T02:44:31.570Z,99.90
2023-04-15T02:47:07.354Z,99.90
2023-04-15T02:49:37.765Z,99.90
2023-04-15T02:52:09.341Z,99.90
2023-04-15T02:54:39.834Z,99.90
2023-04-15T02:57:13.372Z,99.90
2023-04-15T02:59:43.777Z,99.90
2023-04-15T03:02:14.681Z,99.90
2023-04-15T03:04:45.221Z,99.90
2023-04-15T03:07:15.749Z,99.90
2023-04-15T03:09:46.369Z,99.90
2023-04-15T03:12:19.466Z,99.90
2023-04-15T03:14:49.922Z,99.90
2023-04-15T03:17:20.400Z,99.90
2023-04-15T03:19:50.886Z,99.90
2023-04-15T03:22:21.631Z,99.90
2023-04-15T03:24:52.392Z,99.90
2023-04-15T03:27:25.444Z,99.90
2023-04-15T03:29:59.444Z,99.90
2023-04-15T03:32:32.937Z,99.90
2023-04-15T03:35:03.364Z,99.90
2023-04-15T03:37:33.757Z,99.90
2023-04-15T03:40:04.372Z,99.90
2023-04-15T03:42:37.369Z,99.90
2023-04-15T03:45:08.999Z,99.90
2023-04-15T03:47:39.554Z,99.90
2023-04-15T03:50:11.314Z,99.90
2023-04-15T03:52:41.835Z,99.90
2023-04-15T03:55:12.771Z,99.90
2023-04-15T03:57:45.965Z,99.90
2023-04-15T04:00:16.712Z,99.90
2023-04-15T04:02:47.294Z,99.90
2023-04-15T04:05:17.864Z,99.90
2023-04-15T04:07:48.300Z,99.90
2023-04-15T04:10:19.784Z,99.90
2023-04-15T04:12:52.801Z,99.90
2023-04-15T04:15:23.161Z,99.90
2023-04-15T04:17:53.751Z,99.90
2023-04-15T04:20:24.105Z,99.90
2023-04-15T04:22:54.565Z,99.90
2023-04-15T04:25:24.993Z,99.90
2023-04-15T04:27:58.043Z,99.90
2023-04-15T04:30:28.577Z,99.90
2023-04-15T04:32:59.064Z,99.90
2023-04-15T04:35:29.613Z,99.90
2023-04-15T04:38:00.091Z,99.90
2023-04-15T04:40:30.559Z,99.90
2023-04-15T04:43:03.632Z,99.90
2023-04-15T04:45:34.099Z,99.90
2023-04-15T04:48:07.376Z,99.90
2023-04-15T04:50:38.003Z,99.90
2023-04-15T04:53:08.419Z,99.90
2023-04-15T04:55:39.504Z,99.90
2023-04-15T04:58:12.838Z,99.90
2023-04-15T05:00:44.036Z,99.90
2023-04-15T05:03:14.809Z,99.90
2023-04-15T05:05:45.386Z,99.90
2023-04-15T05:08:15.785Z,99.90
2023-04-15T05:10:46.318Z,99.90
2023-04-15T05:13:19.603Z,99.90
2023-04-15T05:15:50.031Z,99.90
2023-04-15T05:18:20.944Z,99.90
2023-04-15T05:20:51.479Z,99.90
2023-04-15T05:23:22.298Z,99.90
2023-04-15T05:25:52.688Z,99.90
2023-04-15T05:28:25.909Z,99.90
2023-04-15T05:30:56.529Z,99.90
2023-04-15T05:33:27.810Z,99.90
2023-04-15T05:35:58.259Z,99.90
2023-04-15T05:38:28.783Z,99.90
2023-04-15T05:40:59.226Z,99.90
2023-04-15T05:43:32.392Z,99.90
2023-04-15T05:46:02.879Z,99.90
2023-04-15T05:48:33.297Z,99.90
2023-04-15T05:51:04.016Z,99.90
2023-04-15T05:53:34.385Z,99.90
2023-04-15T05:56:04.869Z,99.90
2023-04-15T05:58:37.900Z,99.90
2023-04-15T06:01:08.596Z,99.90
2023-04-15T06:03:39.250Z,99.90
2023-04-15T06:06:10.230Z,99.90
2023-04-15T06:08:40.700Z,99.90
2023-04-15T06:11:11.204Z,99.90
2023-04-15T06:13:44.320Z,99.90
2023-04-15T06:16:14.988Z,99.90
2023-04-15T06:18:45.568Z,99.90
2023-04-15T06:21:16.064Z,99.90
2023-04-15T06:23:46.571Z,99.90
2023-04-15T06:26:17.064Z,99.90
2023-04-15T06:28:50.106Z,99.90
2023-04-15T06:31:21.061Z,99.90
2023-04-15T06:33:51.628Z,99.90
2023-04-15T06:36:22.089Z,99.90
2023-04-15T06:38:52.545Z,99.90
2023-04-15T06:41:23.126Z,99.90
2023-04-15T06:43:56.203Z,99.90
2023-04-15T06:46:27.035Z,99.90
2023-04-15T06:48:57.511Z,99.90
2023-04-15T06:51:28.042Z,99.90
2023-04-15T06:53:58.715Z,99.90
2023-04-15T06:56:29.260Z,99.90
2023-04-15T06:59:02.501Z,99.90
2023-04-15T07:01:33.159Z,99.90
2023-04-15T07:04:03.953Z,99.90
2023-04-15T07:06:35.849Z,99.90
2023-04-15T07:09:06.610Z,99.90
2023-04-15T07:11:37.130Z,99.90
2023-04-15T07:14:10.233Z,99.90
2023-04-15T07:16:40.695Z,99.90
2023-04-15T07:19:11.083Z,99.90
2023-04-15T07:21:42.021Z,99.90
2023-04-15T07:24:12.645Z,99.90
2023-04-15T07:26:43.124Z,99.90
2023-04-15T07:29:16.150Z,99.90
2023-04-15T07:31:46.661Z,99.90
2023-04-15T07:34:17.259Z,99.90
2023-04-15T07:36:50.745Z,99.90
2023-04-15T07:39:21.282Z,99.90
2023-04-15T07:41:52.169Z,99.90
2023-04-15T07:44:25.235Z,99.90
2023-04-15T07:46:55.757Z,99.90
2023-04-15T07:49:26.354Z,99.90
2023-04-15T07:51:57.999Z,99.90
2023-04-15T07:54:28.855Z,99.90
2023-04-15T07:56:59.324Z,99.90
2023-04-15T07:59:33.744Z,99.90
2023-04-15T08:02:04.472Z,99.90
2023-04-15T08:04:35.178Z,99.90
2023-04-15T08:07:06.465Z,99.90
2023-04-15T08:09:37.309Z,99.90
2023-04-15T08:12:09.832Z,99.90
2023-04-15T08:14:42.910Z,99.90
2023-04-15T08:17:13.427Z,99.90
2023-04-15T08:19:43.966Z,99.90
2023-04-15T08:22:16.077Z,99.90
2023-04-15T08:24:49.045Z,99.90
2023-04-15T08:27:19.782Z,99.90
2023-04-15T08:29:52.742Z,99.90
2023-04-15T08:32:23.176Z,99.90
2023-04-15T08:34:53.599Z,99.90
2023-04-15T08:37:24.424Z,99.90
2023-04-15T08:39:54.905Z,99.90
2023-04-15T08:42:34.612Z,99.90
2023-04-15T08:45:08.952Z,99.90
2023-04-15T08:47:41.000Z,99.90
2023-04-15T08:50:13.904Z,99.90
2023-04-15T08:52:44.545Z,99.90
2023-04-15T08:55:16.612Z,99.90
2023-04-15T08:57:47.112Z,99.90
2023-04-15T09:00:20.928Z,99.90
2023-04-15T09:02:52.742Z,99.90
2023-04-15T09:05:23.531Z,99.90
2023-04-15T09:07:54.470Z,99.90
2023-04-15T09:10:24.957Z,99.90
2023-04-15T09:12:55.375Z,99.90
2023-04-15T09:15:29.796Z,99.90
2023-04-15T09:18:00.422Z,99.90
2023-04-15T09:20:31.029Z,99.90
2023-04-15T09:23:01.810Z,99.90
2023-04-15T09:25:34.841Z,99.90
2023-04-15T09:28:05.993Z,99.90
2023-04-15T09:30:39.323Z,99.90
2023-04-15T09:33:11.151Z,99.90
2023-04-15T09:35:41.778Z,99.90
2023-04-15T09:38:13.342Z,99.90
2023-04-15T09:40:45.150Z,99.90
2023-04-15T09:43:17.617Z,99.90
2023-04-15T09:45:54.962Z,99.90
2023-04-15T09:48:28.364Z,99.90
2023-04-15T09:51:01.698Z,99.90
2023-04-15T09:53:32.489Z,99.90
2023-04-15T09:56:04.562Z,99.90
2023-04-15T09:58:39.045Z,99.90
2023-04-15T10:01:12.165Z,99.90
2023-04-15T10:03:45.486Z,99.90
2023-04-15T10:06:16.652Z,99.90
2023-04-15T10:08:47.423Z,99.90
2023-04-15T10:11:18.808Z,99.90
2023-04-15T10:13:52.112Z,99.90
2023-04-15T10:16:26.161Z,99.90
2023-04-15T10:18:59.892Z,99.90
2023-04-15T10:21:33.206Z,99.90
2023-04-15T10:24:05.135Z,99.90
2023-04-15T10:26:35.994Z,99.90
2023-04-15T10:29:06.750Z,99.90
2023-04-15T10:31:40.860Z,99.90
2023-04-15T10:34:12.670Z,99.90
2023-04-15T10:36:43.129Z,99.90
2023-04-15T10:39:45.024Z,99.90
2023-04-15T10:42:16.860Z,99.90
2023-04-15T10:44:48.364Z,99.90
2023-04-15T10:47:23.522Z,99.90
2023-04-15T10:49:55.512Z,99.90
2023-04-15T10:52:28.015Z,99.90
2023-04-15T10:55:07.371Z,99.90
2023-04-15T10:57:42.575Z,99.90
2023-04-15T11:00:18.028Z,99.90
2023-04-15T11:02:55.870Z,99.90
2023-04-15T11:05:47.211Z,99.90
2023-04-15T11:08:17.638Z,99.90
2023-04-15T11:10:57.905Z,99.90
2023-04-15T11:13:33.391Z,99.90
2023-04-15T11:16:04.993Z,99.90
2023-04-15T11:18:38.467Z,99.90
2023-04-15T11:21:10.450Z,99.90
2023-04-15T11:23:44.446Z,99.90
2023-04-15T11:26:15.663Z,99.90
2023-04-15T11:28:47.956Z,99.90
2023-04-15T11:31:20.426Z,99.90
2023-04-15T11:33:59.509Z,99.90
2023-04-15T11:36:32.304Z,99.90
2023-04-15T11:39:04.064Z,99.90
2023-04-15T11:41:34.490Z,99.90
2023-04-15T11:44:05.009Z,99.90
2023-04-15T11:46:35.705Z,99.90
2023-04-15T11:49:08.695Z,99.90
2023-04-15T11:51:39.315Z,99.90
2023-04-15T11:54:09.705Z,99.90
2023-04-15T11:56:40.054Z,99.90
2023-04-15T11:59:10.717Z,99.90
2023-04-15T12:01:44.055Z,99.90
2023-04-15T12:04:25.161Z,99.90
2023-04-15T12:06:56.467Z,99.90
2023-04-15T12:09:27.286Z,99.90
2023-04-15T12:12:01.324Z,99.20
2023-04-15T12:14:32.821Z,98.20
2023-04-15T12:17:05.630Z,99.90
2023-04-15T12:19:40.312Z,98.10
2023-04-15T12:22:13.658Z,98.70
2023-04-15T12:24:48.183Z,99.90
2023-04-15T12:27:20.101Z,99.90
2023-04-15T12:29:50.472Z,99.90
2023-04-15T12:32:22.231Z,99.90
2023-04-15T12:34:57.311Z,96.20
2023-04-15T12:37:27.771Z,96.70
2023-04-15T12:39:58.184Z,97.00
2023-04-15T12:42:28.609Z,94.90
2023-04-15T12:44:58.921Z,95.40
2023-04-15T12:47:29.397Z,95.50
2023-04-15T12:50:02.650Z,94.60
2023-04-15T12:52:33.118Z,94.60
2023-04-15T12:55:03.529Z,94.10
2023-04-15T12:57:33.882Z,96.70
2023-04-15T13:00:07.139Z,97.60
2023-04-15T13:02:38.116Z,94.50
2023-04-15T13:05:11.993Z,96.10
2023-04-15T13:07:42.416Z,97.40
2023-04-15T13:10:13.926Z,98.10
2023-04-15T13:12:47.050Z,96.00
2023-04-15T13:15:20.900Z,96.60
2023-04-15T13:17:51.377Z,97.80
2023-04-15T13:20:24.495Z,96.00
2023-04-15T13:22:56.441Z,96.30
2023-04-15T13:25:28.058Z,94.80
2023-04-15T13:27:58.490Z,96.50
2023-04-15T13:30:28.876Z,96.40
2023-04-15T13:32:59.274Z,96.10
2023-04-15T13:35:32.277Z,97.20
2023-04-15T13:38:02.656Z,99.70
2023-04-15T13:40:33.081Z,96.70
2023-04-15T13:43:03.698Z,98.90
2023-04-15T13:45:34.503Z,96.70
2023-04-15T13:48:04.939Z,96.50
2023-04-15T13:50:39.088Z,97.80
2023-04-15T13:53:10.934Z,99.20
2023-04-15T13:55:42.894Z,98.80
2023-04-15T13:58:14.176Z,99.90
2023-04-15T14:00:44.608Z,99.90
2023-04-15T14:03:15.217Z,99.90
2023-04-15T14:05:48.517Z,99.90
2023-04-15T14:08:18.942Z,99.10
2023-04-15T14:10:49.772Z,99.70
2023-04-15T14:13:20.193Z,98.50
2023-04-15T14:15:50.827Z,99.70
2023-04-15T14:18:21.239Z,97.70
2023-04-15T14:20:54.429Z,98.40
2023-04-15T14:23:25.944Z,95.70
2023-04-15T14:25:56.859Z,98.10
2023-04-15T14:28:28.024Z,96.80
2023-04-15T14:30:58.757Z,98.20
2023-04-15T14:33:29.159Z,99.90
2023-04-15T14:36:02.241Z,98.80
2023-04-15T14:38:33.961Z,98.60
2023-04-15T14:41:04.460Z,98.30
2023-04-15T14:43:34.975Z,99.50
2023-04-15T14:46:05.706Z,98.10
2023-04-15T14:48:36.118Z,96.80
2023-04-15T14:51:09.677Z,98.00
2023-04-15T14:53:40.191Z,99.00
2023-04-15T14:56:11.103Z,99.90
2023-04-15T14:58:41.564Z,98.00
2023-04-15T15:01:12.121Z,99.60
2023-04-15T15:03:42.886Z,99.70
2023-04-15T15:06:16.111Z,99.90
2023-04-15T15:08:46.583Z,99.80
2023-04-15T15:11:17.335Z,99.80
2023-04-15T15:13:47.841Z,98.20
2023-04-15T15:16:18.445Z,98.00
2023-04-15T15:18:48.916Z,96.50
2023-04-15T15:21:21.961Z,96.60
2023-04-15T15:23:52.390Z,98.20
2023-04-15T15:26:22.810Z,98.30
2023-04-15T15:28:53.382Z,99.10
2023-04-15T15:31:23.893Z,97.60
2023-04-15T15:33:54.242Z,97.20
2023-04-15T15:36:27.494Z,98.90
2023-04-15T15:38:58.968Z,99.60
2023-04-15T15:41:30.256Z,98.80
2023-04-15T15:44:01.203Z,99.90
2023-04-15T15:46:31.967Z,99.90
2023-04-15T15:49:02.982Z,99.50
2023-04-15T15:51:36.450Z,99.80
2023-04-15T15:54:07.061Z,98.90
2023-04-15T15:56:38.739Z,99.90
2023-04-15T15:59:09.309Z,98.60
2023-04-15T16:01:39.887Z,99.50
2023-04-15T16:04:10.892Z,99.90
2023-04-15T16:06:44.908Z,98.40
2023-04-15T16:09:15.547Z,99.80
2023-04-15T16:11:46.895Z,99.30
2023-04-15T16:14:17.341Z,99.30
2023-04-15T16:16:47.961Z,99.90
2023-04-15T16:19:18.460Z,99.90
2023-04-15T16:21:52.081Z,98.90
2023-04-15T16:24:22.531Z,98.30
2023-04-15T16:26:53.101Z,98.50
2023-04-15T16:29:23.628Z,98.30
2023-04-15T16:31:54.196Z,98.70
2023-04-15T16:34:24.889Z,99.90
2023-04-15T16:36:57.948Z,99.40
2023-04-15T16:39:28.448Z,99.10
2023-04-15T16:41:58.905Z,99.00
2023-04-15T16:44:29.685Z,98.20
2023-04-15T16:47:01.199Z,97.30
2023-04-15T16:49:32.122Z,97.70
2023-04-15T16:52:05.236Z,99.30
2023-04-15T16:54:37.960Z,98.10
2023-04-15T16:57:08.517Z,99.90
2023-04-15T16:59:40.339Z,99.30
2023-04-15T17:02:13.370Z,99.40
2023-04-15T17:04:44.071Z,99.90
2023-04-15T17:07:17.292Z,99.90
2023-04-15T17:09:48.312Z,99.80
2023-04-15T17:12:18.838Z,99.30
2023-04-15T17:14:49.570Z,99.90
2023-04-15T17:17:21.031Z,99.50
2023-04-15T17:19:51.521Z,99.90
2023-04-15T17:22:24.564Z,99.50
2023-04-15T17:24:55.025Z,99.50
2023-04-15T17:27:27.798Z,99.90
2023-04-15T17:29:58.317Z,99.90
2023-04-15T17:32:34.882Z,99.90
2023-04-15T17:35:06.803Z,99.90
2023-04-15T17:37:39.904Z,99.90
2023-04-15T17:40:11.676Z,99.90
2023-04-15T17:42:42.196Z,99.90
2023-04-15T17:45:13.830Z,99.90
2023-04-15T17:47:44.426Z,99.90
2023-04-15T17:50:14.923Z,99.90
2023-04-15T17:52:48.696Z,99.50
2023-04-15T17:55:19.527Z,99.90
2023-04-15T17:57:50.108Z,99.90
2023-04-15T18:00:20.955Z,99.90
2023-04-15T18:02:51.916Z,99.90
2023-04-15T18:05:22.622Z,99.90
2023-04-15T18:07:57.084Z,99.90
2023-04-15T18:10:27.483Z,99.90
2023-04-15T18:12:58.003Z,99.90
2023-04-15T18:15:28.604Z,99.90
2023-04-15T18:17:59.127Z,99.90
2023-04-15T18:20:29.586Z,99.90
2023-04-15T18:23:02.754Z,99.90
2023-04-15T18:25:34.456Z,99.90
2023-04-15T18:28:05.456Z,99.90
2023-04-15T18:30:35.917Z,99.90
2023-04-15T18:33:06.620Z,99.90
2023-04-15T18:35:38.071Z,99.90
2023-04-15T18:38:11.351Z,99.90
2023-04-15T18:40:41.771Z,99.90
2023-04-15T18:43:12.491Z,99.90
2023-04-15T18:45:43.335Z,99.90
2023-04-15T18:48:14.545Z,99.90
2023-04-15T18:50:46.205Z,99.90
2023-04-15T18:53:19.458Z,99.90
2023-04-15T18:55:49.977Z,99.90
2023-04-15T18:58:20.697Z,99.90
2023-04-15T19:00:51.063Z,99.90
2023-04-15T19:03:21.593Z,99.90
2023-04-15T19:05:52.334Z,99.90
2023-04-15T19:08:25.417Z,99.90
2023-04-15T19:10:56.337Z,99.90
2023-04-15T19:13:26.961Z,99.90
2023-04-15T19:15:57.415Z,99.90
2023-04-15T19:18:27.887Z,99.90
2023-04-15T19:20:59.428Z,99.90
2023-04-15T19:23:33.947Z,99.90
2023-04-15T19:26:04.878Z,99.90
2023-04-15T19:28:35.303Z,99.90
2023-04-15T19:31:06.343Z,99.90
2023-04-15T19:33:37.203Z,99.90
2023-04-15T19:36:09.104Z,99.90
2023-04-15T19:38:42.147Z,99.90
2023-04-15T19:41:12.781Z,99.90
2023-04-15T19:43:43.200Z,99.90
2023-04-15T19:46:13.918Z,99.90
2023-04-15T19:48:44.504Z,99.90
2023-04-15T19:51:15.268Z,99.90
2023-04-15T19:53:49.839Z,99.90
2023-04-15T19:56:20.286Z,99.90
2023-04-15T19:58:53.123Z,99.90
2023-04-15T20:01:23.713Z,99.90
2023-04-15T20:03:57.345Z,99.90
2023-04-15T20:06:28.650Z,99.90
2023-04-15T20:09:01.998Z,99.90
2023-04-15T20:12:47.031Z,99.90
2023-04-15T20:14:22.940Z,99.90
2023-04-15T20:16:53.392Z,99.90
2023-04-15T20:19:23.804Z,99.90
2023-04-15T20:21:54.296Z,99.90
2023-04-15T20:24:27.374Z,99.90
2023-04-15T20:26:57.876Z,99.90
2023-04-15T20:29:28.356Z,99.90
2023-04-15T20:31:58.842Z,99.90
2023-04-15T20:34:29.222Z,99.90
2023-04-15T20:36:59.630Z,99.90
2023-04-15T20:39:32.662Z,99.90
2023-04-15T20:42:03.803Z,99.90
2023-04-15T20:44:34.795Z,99.90
2023-04-15T20:47:05.416Z,99.90
2023-04-15T20:49:37.768Z,99.90
2023-04-15T20:52:10.048Z,99.90
2023-04-15T20:54:43.141Z,99.90
2023-04-15T20:57:13.699Z,99.90
2023-04-15T20:59:44.132Z,99.90
2023-04-15T21:02:14.716Z,99.90
2023-04-15T21:04:47.342Z,99.90
2023-04-15T21:07:33.372Z,99.90
2023-04-15T21:10:06.554Z,99.90
2023-04-15T21:12:37.794Z,99.90
2023-04-15T21:15:09.301Z,99.90
2023-04-15T21:17:39.831Z,99.90
2023-04-15T21:20:11.741Z,99.90
2023-04-15T21:22:42.570Z,99.90
2023-04-15T21:25:15.944Z,99.90
2023-04-15T21:27:46.457Z,99.90
2023-04-15T21:30:17.172Z,99.90
2023-04-15T21:32:47.687Z,99.90
2023-04-15T21:35:18.183Z,99.90
2023-04-15T21:37:48.858Z,99.90
2023-04-15T21:40:22.181Z,99.90
2023-04-15T21:42:52.971Z,99.90
2023-04-15T21:45:23.382Z,99.90
2023-04-15T21:48:04.939Z,99.90
2023-04-15T21:50:39.795Z,99.90
2023-04-15T21:53:11.419Z,99.90
2023-04-15T21:55:44.420Z,99.90
2023-04-15T21:58:14.865Z,99.90
2023-04-15T22:00:45.248Z,99.90
2023-04-15T22:03:16.279Z,99.90
2023-04-15T22:05:48.620Z,99.90
2023-04-15T22:08:19.036Z,99.90
2023-04-15T22:10:52.055Z,99.90
2023-04-15T22:13:22.519Z,99.90
2023-04-15T22:15:52.924Z,99.90
2023-04-15T22:18:23.476Z,99.90
2023-04-15T22:20:53.848Z,99.90
2023-04-15T22:23:24.273Z,99.90
2023-04-15T22:25:57.354Z,99.90
2023-04-15T22:28:27.821Z,99.90
2023-04-15T22:30:59.214Z,99.90
2023-04-15T22:33:29.687Z,99.90
2023-04-15T22:36:00.220Z,99.90
2023-04-15T22:38:30.714Z,99.90
2023-04-15T22:41:03.745Z,99.90
2023-04-15T22:43:34.157Z,99.90
2023-04-15T22:46:04.759Z,99.90
2023-04-15T22:48:35.359Z,99.90
2023-04-15T22:51:06.552Z,99.90
2023-04-15T22:53:37.040Z,99.90
2023-04-15T22:56:10.557Z,99.90
2023-04-15T22:58:40.892Z,99.90
2023-04-15T23:01:11.933Z,99.90
2023-04-15T23:03:57.069Z,99.90
2023-04-15T23:06:32.812Z,99.90
2023-04-15T23:09:03.256Z,99.90
2023-04-15T23:11:36.306Z,99.90
2023-04-15T23:14:06.749Z,99.90
2023-04-15T23:16:37.272Z,99.90
2023-04-15T23:19:08.122Z,99.90
2023-04-15T23:21:38.833Z,99.90
2023-04-15T23:24:09.987Z,99.90
2023-04-15T23:26:43.114Z,99.90
2023-04-15T23:29:13.624Z,99.90
2023-04-15T23:31:44.572Z,99.90
2023-04-15T23:34:15.019Z,99.90
2023-04-15T23:36:45.490Z,99.90
2023-04-15T23:39:16.065Z,99.90
2023-04-15T23:41:49.087Z,99.90
2023-04-15T23:44:19.551Z,99.90
2023-04-15T23:46:49.985Z,99.90
2023-04-15T23:49:20.691Z,99.90
2023-04-15T23:51:51.302Z,99.90
2023-04-15T23:54:21.676Z,99.90
2023-04-15T23:56:54.667Z,99.90
2023-04-15T23:59:25.063Z,99.90
